Time;durP1;ratioP1;P1;durP2;ratioP2;P2;SDS_P1;SDS_P2;PMS_P1;PMS_P2;Temp;Humidity;BMP_temperature;BMP_pressure;BME280_temperature;BME280_humidity;BME280_pressure;Samples;Min_cycle;Max_cycle;Signal;HPM_P1;HPM_P2
2021/04/07 00:01:58;;;;;;;24.27;15.10;;;;;;;8.30;55.71;92340.84;5013152;28;20541;-80
2021/04/07 00:04:24;;;;;;;21.90;14.50;;;;;;;8.25;56.40;92339.91;5012180;28;20034;-80
2021/04/07 00:06:51;;;;;;;22.85;13.80;;;;;;;8.22;55.79;92322.06;5009628;28;20041;-81
2021/04/07 00:09:20;;;;;;;16.92;13.20;;;;;;;8.35;55.54;92359.13;5006275;28;20056;-83
2021/04/07 00:11:45;;;;;;;84.22;36.25;;;;;;;8.37;55.05;92352.44;5009849;28;20076;-80
2021/04/07 00:14:11;;;;;;;15.13;12.18;;;;;;;8.27;54.17;92345.59;4998482;28;20049;-80
2021/04/07 00:16:37;;;;;;;37.83;19.33;;;;;;;8.28;54.69;92343.75;5016832;28;20064;-80
2021/04/07 00:19:06;;;;;;;21.25;13.02;;;;;;;8.26;54.06;92340.63;5012588;28;20140;-80
2021/04/07 00:21:32;;;;;;;14.48;11.60;;;;;;;8.28;54.00;92328.75;5010118;28;20076;-81
2021/04/07 00:23:57;;;;;;;14.70;11.32;;;;;;;8.27;53.49;92339.56;5009137;28;20033;-80
2021/04/07 00:26:23;;;;;;;15.32;12.18;;;;;;;8.22;53.98;92351.03;5011932;28;20033;-81
2021/04/07 00:28:48;;;;;;;19.45;13.32;;;;;;;7.97;53.76;92325.44;5011995;28;20581;-81
2021/04/07 00:31:13;;;;;;;17.35;12.85;;;;;;;7.99;54.24;92352.22;5009991;28;20433;-80
2021/04/07 00:33:39;;;;;;;16.60;13.07;;;;;;;8.01;54.71;92350.09;5007213;28;20727;-80
2021/04/07 00:36:05;;;;;;;20.45;15.30;;;;;;;7.94;54.59;92306.88;5009942;28;20433;-81
2021/04/07 00:38:33;;;;;;;27.08;13.10;;;;;;;7.75;54.39;92292.16;5004878;28;20038;-80
2021/04/07 00:41:01;;;;;;;17.70;13.38;;;;;;;7.90;55.31;92306.75;4993546;28;20034;-80
2021/04/07 00:43:27;;;;;;;20.40;12.93;;;;;;;7.74;55.78;92282.72;5013472;28;20384;-80
2021/04/07 00:45:53;;;;;;;17.35;13.23;;;;;;;7.64;56.21;92298.00;5009230;28;20040;-81
2021/04/07 00:48:18;;;;;;;43.15;25.17;;;;;;;7.63;57.23;92291.97;5014116;28;20036;-80
2021/04/07 00:50:44;;;;;;;65.55;30.70;;;;;;;7.72;56.55;92310.44;5010423;28;20850;-80
2021/04/07 00:53:09;;;;;;;28.67;17.75;;;;;;;7.56;56.57;92283.00;5005332;28;20056;-80
2021/04/07 00:55:38;;;;;;;21.40;14.25;;;;;;;7.53;55.84;92291.50;5010769;28;20588;-80
2021/04/07 00:58:05;;;;;;;19.77;15.05;;;;;;;7.52;56.51;92280.22;5005346;28;20096;-81
2021/04/07 01:00:31;;;;;;;18.10;14.30;;;;;;;7.45;56.35;92258.09;5008389;28;20063;-79
2021/04/07 01:03:03;;;;;;;19.48;14.05;;;;;;;7.37;57.39;92278.78;5000236;28;20967;-80
2021/04/07 01:05:29;;;;;;;20.05;14.77;;;;;;;6.99;57.88;92219.19;5002854;28;20038;-80
2021/04/07 01:07:55;;;;;;;24.00;16.40;;;;;;;7.11;58.16;92262.16;5008604;28;20230;-81
2021/04/07 01:10:21;;;;;;;23.95;14.43;;;;;;;7.12;58.17;92257.69;5008064;28;20029;-80
2021/04/07 01:12:46;;;;;;;20.50;15.60;;;;;;;7.10;58.99;92265.09;5008205;28;20060;-81
2021/04/07 01:15:13;;;;;;;18.02;14.23;;;;;;;7.07;59.18;92257.81;5011198;28;20044;-81
2021/04/07 01:17:40;;;;;;;20.45;15.27;;;;;;;7.12;59.32;92255.84;5010825;28;20038;-80
2021/04/07 01:20:08;;;;;;;21.48;14.80;;;;;;;7.22;59.16;92284.47;5006469;28;20049;-80
2021/04/07 01:22:35;;;;;;;18.42;14.35;;;;;;;7.23;58.82;92280.75;5011032;28;20048;-80
2021/04/07 01:25:09;;;;;;;39.50;17.50;;;;;;;7.20;59.21;92278.72;5007589;28;20037;-80
2021/04/07 01:27:39;;;;;;;20.25;14.07;;;;;;;7.25;59.11;92286.47;5012305;28;20457;-78
2021/04/07 01:30:13;;;;;;;19.33;14.80;;;;;;;7.32;58.99;92291.28;5005805;28;20041;-81
2021/04/07 01:32:39;;;;;;;18.85;15.25;;;;;;;7.46;58.08;92286.69;5008573;28;20438;-81
2021/04/07 01:35:09;;;;;;;19.95;15.35;;;;;;;7.51;58.43;92309.44;5007799;28;20060;-80
2021/04/07 01:37:35;;;;;;;19.65;14.55;;;;;;;7.46;57.77;92317.47;5009088;28;20034;-81
2021/04/07 01:40:07;;;;;;;21.13;15.65;;;;;;;7.43;57.70;92325.97;5008519;28;20133;-81
2021/04/07 01:42:32;;;;;;;18.75;14.00;;;;;;;7.47;56.91;92324.28;5008533;28;20490;-80
2021/04/07 01:45:02;;;;;;;25.42;14.90;;;;;;;7.36;56.54;92313.25;4999421;28;20076;-81
2021/04/07 01:47:28;;;;;;;89.38;40.60;;;;;;;7.31;56.98;92327.31;5011232;28;20115;-81
2021/04/07 01:49:54;;;;;;;20.73;14.77;;;;;;;7.24;57.21;92332.22;5003552;28;20025;-81
2021/04/07 01:52:20;;;;;;;23.80;16.05;;;;;;;7.24;57.83;92353.22;5006608;28;20018;-81
2021/04/07 01:54:46;;;;;;;25.63;16.38;;;;;;;7.05;57.94;92334.28;5008549;28;20560;-81
2021/04/07 01:57:11;;;;;;;22.67;14.52;;;;;;;6.93;58.35;92329.59;4999704;28;20072;-81
2021/04/07 01:59:37;;;;;;;26.83;16.42;;;;;;;6.91;58.69;92328.34;5002455;28;20398;-84
2021/04/07 02:02:03;;;;;;;20.85;15.23;;;;;;;6.82;58.98;92328.31;5006496;28;20034;-82
2021/04/07 02:04:28;;;;;;;22.70;15.25;;;;;;;6.74;59.71;92330.88;5006323;28;20367;-80
2021/04/07 02:06:57;;;;;;;22.23;15.77;;;;;;;6.66;60.42;92321.09;5012417;28;20498;-80
2021/04/07 02:09:25;;;;;;;24.55;16.40;;;;;;;6.80;60.48;92334.91;5009288;28;20037;-82
2021/04/07 02:11:53;;;;;;;25.15;16.88;;;;;;;6.78;60.52;92332.63;5003650;28;20033;-82
2021/04/07 02:14:21;;;;;;;20.92;15.43;;;;;;;6.75;60.84;92342.91;5004911;28;20594;-81
2021/04/07 02:17:06;;;;;;;26.00;16.88;;;;;;;6.64;61.43;92345.03;5006057;28;20041;-81
2021/04/07 02:19:33;;;;;;;21.40;15.32;;;;;;;6.52;61.60;92358.69;5011592;28;20070;-82
2021/04/07 02:22:07;;;;;;;23.13;17.20;;;;;;;6.43;62.50;92357.84;4997633;28;20069;-80
2021/04/07 02:24:49;;;;;;;24.05;16.95;;;;;;;6.49;62.23;92355.88;5004582;28;20072;-82
2021/04/07 02:27:19;;;;;;;25.80;18.15;;;;;;;6.42;62.73;92366.00;5007160;28;20045;-81
2021/04/07 02:29:49;;;;;;;23.60;17.77;;;;;;;6.32;62.80;92372.25;5006670;28;20045;-81
2021/04/07 02:32:15;;;;;;;21.45;15.38;;;;;;;6.28;62.60;92373.94;5008218;28;20049;-81
2021/04/07 02:34:42;;;;;;;18.92;15.60;;;;;;;6.06;62.79;92377.28;5009108;28;20025;-80
2021/04/07 02:37:10;;;;;;;19.10;14.45;;;;;;;6.01;63.46;92374.00;5004542;28;20498;-80
2021/04/07 02:39:35;;;;;;;20.85;14.82;;;;;;;5.99;63.69;92370.88;5008833;28;20038;-80
2021/04/07 02:42:01;;;;;;;15.35;12.40;;;;;;;5.81;63.64;92358.66;5006565;28;20049;-80
2021/04/07 02:44:27;;;;;;;15.73;13.15;;;;;;;5.76;63.67;92356.16;5007945;28;20079;-80
2021/04/07 02:46:52;;;;;;;19.83;12.60;;;;;;;5.67;64.08;92358.66;5008748;28;20473;-81
2021/04/07 02:49:18;;;;;;;13.60;11.63;;;;;;;5.67;64.23;92387.47;5008912;28;20029;-80
2021/04/07 02:51:44;;;;;;;13.02;10.50;;;;;;;5.59;64.32;92383.72;5005821;28;20434;-81
2021/04/07 02:54:09;;;;;;;10.48;8.98;;;;;;;5.35;64.78;92388.38;5009496;28;20041;-81
2021/04/07 02:56:37;;;;;;;9.73;8.18;;;;;;;5.44;64.99;92410.19;5003651;28;20494;-81
2021/04/07 02:59:04;;;;;;;7.95;7.13;;;;;;;5.26;64.45;92402.41;5009736;28;20076;-81
2021/04/07 03:01:31;;;;;;;12.18;7.70;;;;;;;5.21;64.67;92419.00;5008983;28;20040;-81
2021/04/07 03:04:00;;;;;;;7.63;6.63;;;;;;;5.17;64.54;92431.91;4996194;28;20046;-82
2021/04/07 03:06:25;;;;;;;6.93;5.10;;;;;;;5.12;64.37;92452.16;5006718;28;20572;-80
2021/04/07 03:08:53;;;;;;;5.45;4.93;;;;;;;4.85;64.98;92449.44;5005823;28;20061;-80
2021/04/07 03:11:22;;;;;;;4.85;4.30;;;;;;;4.90;65.29;92459.81;5004678;28;20036;-83
2021/04/07 03:13:52;;;;;;;4.63;4.13;;;;;;;4.60;65.34;92425.22;5008017;28;20026;-83
2021/04/07 03:16:18;;;;;;;4.40;3.60;;;;;;;4.61;65.46;92452.94;5005889;28;20028;-81
2021/04/07 03:18:43;;;;;;;4.47;4.07;;;;;;;4.60;65.76;92445.34;5003429;28;20054;-80
2021/04/07 03:21:09;;;;;;;4.95;3.67;;;;;;;4.56;65.69;92439.94;5002243;28;20041;-80
2021/04/07 03:23:34;;;;;;;4.13;3.72;;;;;;;4.59;65.57;92449.84;4989197;28;20052;-80
2021/04/07 03:26:03;;;;;;;3.67;3.38;;;;;;;4.49;65.70;92449.97;5006310;28;20042;-82
2021/04/07 03:28:29;;;;;;;3.25;3.03;;;;;;;4.53;65.74;92466.66;5011474;28;20030;-80
2021/04/07 03:30:55;;;;;;;4.25;3.83;;;;;;;4.54;65.65;92470.84;5017679;28;20108;-81
2021/04/07 03:33:27;;;;;;;4.45;3.63;;;;;;;4.59;65.28;92457.69;5010115;28;20132;-81
2021/04/07 03:35:53;;;;;;;3.50;3.20;;;;;;;4.63;65.51;92471.75;5007278;28;20033;-80
2021/04/07 03:38:19;;;;;;;3.63;3.33;;;;;;;4.59;66.61;92481.22;5012229;28;20053;-81
2021/04/07 03:40:45;;;;;;;3.13;2.90;;;;;;;4.49;66.35;92470.91;5000594;28;20036;-80
2021/04/07 03:43:20;;;;;;;3.15;2.95;;;;;;;4.57;66.32;92478.13;5007921;28;20025;-80
2021/04/07 03:45:48;;;;;;;3.63;3.33;;;;;;;4.52;65.95;92493.88;5008940;28;20740;-82
2021/04/07 03:48:15;;;;;;;4.15;3.63;;;;;;;4.39;66.99;92486.75;5008642;28;20129;-82
2021/04/07 03:50:42;;;;;;;3.28;2.70;;;;;;;4.30;65.65;92504.13;5012127;28;20038;-82
2021/04/07 03:53:15;;;;;;;2.42;2.22;;;;;;;4.26;64.71;92518.78;5004474;28;20045;-83
2021/04/07 03:55:42;;;;;;;2.95;2.55;;;;;;;4.00;65.21;92525.41;5011207;28;20121;-81
2021/04/07 03:58:08;;;;;;;2.92;2.53;;;;;;;3.92;65.60;92540.63;5026934;28;20140;-81
2021/04/07 04:00:34;;;;;;;2.78;2.58;;;;;;;3.75;66.02;92540.28;5005980;28;20061;-82
2021/04/07 04:02:59;;;;;;;2.72;2.40;;;;;;;3.75;66.66;92560.41;5008360;28;20034;-82
2021/04/07 04:05:39;;;;;;;2.92;2.63;;;;;;;3.45;66.46;92535.34;5012551;28;20554;-84
2021/04/07 04:08:06;;;;;;;3.70;2.53;;;;;;;3.37;66.44;92541.16;5004563;28;20414;-83
2021/04/07 04:10:38;;;;;;;3.22;2.50;;;;;;;3.28;67.33;92533.13;5011852;28;20044;-82
2021/04/07 04:13:07;;;;;;;2.13;1.98;;;;;;;3.45;64.99;92592.78;5008816;28;20034;-81
2021/04/07 04:15:36;;;;;;;2.22;2.03;;;;;;;3.27;65.70;92577.81;5008775;28;20640;-81
2021/04/07 04:18:08;;;;;;;3.53;2.30;;;;;;;3.34;66.44;92597.31;5009498;28;20045;-82
2021/04/07 04:20:34;;;;;;;3.05;2.50;;;;;;;3.27;68.25;92619.56;5008489;28;20533;-81
2021/04/07 04:23:00;;;;;;;3.53;2.80;;;;;;;3.19;69.48;92583.59;5000776;28;20098;-82
2021/04/07 04:25:34;;;;;;;2.72;2.53;;;;;;;3.38;68.71;92613.22;5012400;28;20086;-82
2021/04/07 04:28:00;;;;;;;4.60;2.55;;;;;;;3.08;69.30;92592.56;5009262;28;20124;-81
2021/04/07 04:30:29;;;;;;;2.95;2.65;;;;;;;3.07;70.13;92604.03;5010102;28;20037;-81
2021/04/07 04:32:57;;;;;;;2.95;2.55;;;;;;;3.03;70.96;92607.19;5009494;28;20044;-81
2021/04/07 04:35:23;;;;;;;3.17;2.88;;;;;;;2.96;71.37;92606.72;5009439;28;20067;-82
2021/04/07 04:37:49;;;;;;;3.10;2.88;;;;;;;2.99;71.79;92634.88;5014411;28;20014;-81
2021/04/07 04:40:18;;;;;;;3.13;2.47;;;;;;;2.96;72.08;92627.59;5011824;28;20029;-82
2021/04/07 04:42:43;;;;;;;3.83;3.33;;;;;;;3.04;72.46;92634.84;5010198;28;20111;-81
2021/04/07 04:45:10;;;;;;;4.75;2.90;;;;;;;3.16;72.57;92655.41;5007957;28;20135;-81
2021/04/07 04:47:38;;;;;;;3.05;2.75;;;;;;;3.09;72.47;92635.84;5011238;28;20080;-83
2021/04/07 04:50:11;;;;;;;4.70;2.92;;;;;;;3.24;72.40;92649.59;5010967;28;20041;-80
2021/04/07 04:52:42;;;;;;;3.90;2.88;;;;;;;3.28;71.93;92649.84;5012723;28;20032;-82
2021/04/07 04:55:09;;;;;;;3.17;2.85;;;;;;;3.26;73.49;92641.50;5021723;28;20728;-82
2021/04/07 04:57:36;;;;;;;4.80;3.05;;;;;;;3.27;73.15;92650.91;5008408;28;20041;-81
2021/04/07 05:00:07;;;;;;;3.30;3.00;;;;;;;3.18;73.32;92657.72;5001141;28;20132;-81
2021/04/07 05:02:33;;;;;;;4.85;3.85;;;;;;;3.27;73.25;92671.78;5008380;28;20042;-82
2021/04/07 05:05:01;;;;;;;6.32;4.53;;;;;;;3.24;73.51;92667.88;5002639;28;20033;-82
2021/04/07 05:07:26;;;;;;;6.13;4.28;;;;;;;3.19;74.57;92667.91;5010477;28;20053;-81
2021/04/07 05:09:52;;;;;;;30.55;7.32;;;;;;;3.16;75.76;92688.56;5010717;28;20288;-81
2021/04/07 05:12:17;;;;;;;30.90;7.18;;;;;;;3.15;75.99;92700.03;4998311;28;20250;-81
2021/04/07 05:14:45;;;;;;;4.95;4.15;;;;;;;3.06;76.11;92676.34;5007301;28;20120;-82
2021/04/07 05:17:10;;;;;;;6.13;4.50;;;;;;;3.07;75.33;92664.06;5007548;28;20046;-82
2021/04/07 05:19:35;;;;;;;2.22;2.03;;;;;;;3.03;75.09;92653.38;5010459;28;20057;-82
2021/04/07 05:22:04;;;;;;;2.97;2.67;;;;;;;3.09;74.82;92672.41;5005940;28;20244;-82
2021/04/07 05:24:30;;;;;;;2.58;2.33;;;;;;;3.03;74.20;92661.97;4999020;28;20052;-81
2021/04/07 05:26:55;;;;;;;2.63;2.42;;;;;;;3.10;73.67;92672.13;5007481;28;20041;-82
2021/04/07 05:29:20;;;;;;;1.92;1.83;;;;;;;3.09;73.67;92673.19;5009930;28;20485;-81
2021/04/07 05:31:46;;;;;;;2.92;2.10;;;;;;;3.12;73.23;92657.00;5008013;28;20088;-83
2021/04/07 05:34:12;;;;;;;2.80;2.33;;;;;;;2.85;74.12;92657.38;5007812;28;20241;-82
2021/04/07 05:36:37;;;;;;;2.83;2.60;;;;;;;2.90;74.82;92680.06;5006526;28;20812;-82
2021/04/07 05:39:14;;;;;;;3.35;2.63;;;;;;;2.83;74.15;92690.81;4999608;28;20033;-83
2021/04/07 05:41:39;;;;;;;3.15;2.85;;;;;;;2.40;75.90;92634.88;5008842;28;20170;-82
2021/04/07 05:44:05;;;;;;;2.70;2.50;;;;;;;2.55;76.75;92667.94;5003341;28;20041;-82
2021/04/07 05:46:33;;;;;;;3.50;3.20;;;;;;;2.68;76.41;92687.47;5011729;28;20395;-82
2021/04/07 05:49:09;;;;;;;4.78;4.20;;;;;;;2.15;76.93;92653.97;5006046;28;20155;-82
2021/04/07 05:51:37;;;;;;;;;;;;;;;2.67;77.91;92728.44;5013118;28;20140;-83
2021/04/07 05:54:02;;;;;;;5.47;4.22;;;;;;;2.17;77.08;92662.31;5005633;28;19986;-82
2021/04/07 05:56:33;;;;;;;4.70;3.70;;;;;;;2.32;76.22;92699.81;4990633;28;20050;-82
2021/04/07 05:59:04;;;;;;;4.63;3.88;;;;;;;2.12;76.40;92677.19;5006406;28;20557;-82
2021/04/07 06:01:29;;;;;;;4.85;4.35;;;;;;;1.96;77.41;92629.53;5006714;28;20042;-81
2021/04/07 06:04:16;;;;;;;4.32;3.92;;;;;;;2.24;77.51;92625.56;5007434;28;20060;-82
2021/04/07 06:06:50;;;;;;;5.22;4.72;;;;;;;2.39;77.63;92653.41;5010326;28;20081;-83
2021/04/07 06:09:26;;;;;;;6.28;4.88;;;;;;;2.50;77.44;92652.31;5005643;28;20071;-83
2021/04/07 06:12:08;;;;;;;7.95;5.78;;;;;;;2.54;76.42;92663.81;5006435;28;20037;-83
2021/04/07 06:14:40;;;;;;;5.18;3.65;;;;;;;2.64;74.73;92676.78;5003639;28;20570;-83
2021/04/07 06:17:05;;;;;;;5.25;3.92;;;;;;;2.39;75.50;92679.50;5009514;28;20053;-83
2021/04/07 06:19:31;;;;;;;4.57;3.75;;;;;;;2.48;75.04;92720.41;5008418;28;20053;-82
2021/04/07 06:21:56;;;;;;;4.72;3.95;;;;;;;2.46;75.93;92699.00;4945501;28;20035;-84
2021/04/07 06:24:22;;;;;;;4.78;4.25;;;;;;;2.17;74.84;92667.53;4970114;28;20116;-83
2021/04/07 06:26:47;;;;;;;13.65;5.85;;;;;;;2.23;75.47;92706.63;4988782;28;20042;-83
2021/04/07 06:29:16;;;;;;;8.13;5.85;;;;;;;2.08;77.20;92700.41;4979587;28;20430;-84
2021/04/07 06:32:02;;;;;;;6.43;4.03;;;;;;;2.24;76.89;92729.84;4991373;28;20030;-83
2021/04/07 06:34:30;;;;;;;5.72;5.05;;;;;;;1.84;77.57;92683.75;5008548;28;20065;-85
2021/04/07 06:36:55;;;;;;;5.90;4.68;;;;;;;2.05;78.15;92694.94;5006465;28;20136;-83
2021/04/07 06:39:38;;;;;;;5.15;4.20;;;;;;;2.15;76.90;92726.94;5008285;28;20033;-86
2021/04/07 06:42:14;;;;;;;4.60;4.10;;;;;;;2.39;77.24;92760.31;5002465;28;20040;-85
2021/04/07 06:48:28;;;;;;;8.23;5.55;;;;;;;2.55;77.47;92757.41;4984375;28;20438;-85
2021/04/07 06:51:39;;;;;;;6.40;5.05;;;;;;;2.61;76.74;92766.00;4956856;28;20521;-83
2021/04/07 06:54:10;;;;;;;7.78;5.63;;;;;;;2.34;76.71;92723.81;4970633;28;20042;-85
2021/04/07 06:56:44;;;;;;;6.00;4.90;;;;;;;2.58;75.65;92769.91;5010490;28;20141;-85
2021/04/07 06:59:17;;;;;;;5.57;5.00;;;;;;;2.52;76.93;92751.94;5002000;28;20259;-84
2021/04/07 07:05:19;;;;;;;9.05;5.45;;;;;;;2.74;77.43;92781.06;4993323;28;20167;-86
2021/04/07 07:08:19;;;;;;;6.35;4.75;;;;;;;2.43;75.84;92743.09;4991075;28;20025;-87
2021/04/07 07:11:07;;;;;;;7.60;5.80;;;;;;;2.71;76.10;92781.63;4978053;28;20034;-86
2021/04/07 07:13:50;;;;;;;6.55;5.28;;;;;;;2.99;75.33;92814.94;5014045;28;20061;-86
2021/04/07 07:16:34;;;;;;;7.13;5.90;;;;;;;3.15;76.35;92817.50;4981241;28;20045;-87
2021/04/07 07:19:20;;;;;;;6.80;5.10;;;;;;;2.68;74.85;92760.50;4973189;28;20092;-86
2021/04/07 07:21:57;;;;;;;5.30;4.50;;;;;;;2.99;75.51;92788.06;4978780;28;20068;-87
2021/04/07 07:24:42;;;;;;;5.80;4.75;;;;;;;3.23;74.87;92809.13;4972617;28;20033;-85
2021/04/07 07:27:27;;;;;;;5.00;4.50;;;;;;;3.22;73.70;92823.22;4956148;28;20081;-87
2021/04/07 07:30:12;;;;;;;5.03;4.35;;;;;;;2.89;74.42;92772.44;5004584;28;20048;-86
2021/04/07 07:32:41;;;;;;;6.97;4.82;;;;;;;2.89;73.85;92770.59;5008342;28;20037;-86
2021/04/07 07:35:17;;;;;;;4.93;4.35;;;;;;;2.79;74.80;92762.03;5024593;28;20045;-85
2021/04/07 07:37:46;;;;;;;7.50;5.22;;;;;;;3.02;74.38;92796.16;4999733;28;20225;-87
2021/04/07 07:40:14;;;;;;;6.47;4.25;;;;;;;3.29;73.79;92842.78;4970043;28;20094;-85
2021/04/07 07:42:46;;;;;;;5.25;4.68;;;;;;;3.10;73.42;92838.41;5009668;28;20478;-86
2021/04/07 07:45:13;;;;;;;5.45;4.53;;;;;;;3.17;74.02;92851.97;5016068;28;20050;-86
2021/04/07 07:47:42;;;;;;;5.68;4.75;;;;;;;2.92;74.49;92813.66;5005519;28;20049;-86
2021/04/07 07:50:11;;;;;;;5.60;5.10;;;;;;;3.09;74.33;92813.34;5009813;28;20041;-85
2021/04/07 07:52:41;;;;;;;5.85;5.22;;;;;;;3.55;74.13;92869.59;5015545;28;20482;-85
2021/04/07 07:55:18;;;;;;;5.00;4.20;;;;;;;3.51;71.42;92873.00;5007952;28;20068;-84
2021/04/07 07:57:56;;;;;;;5.97;4.95;;;;;;;2.95;72.12;92820.94;4988386;28;20045;-85
2021/04/07 08:00:28;;;;;;;5.53;4.75;;;;;;;3.32;73.17;92859.75;5008775;28;20038;-85
2021/04/07 08:02:56;;;;;;;6.35;5.35;;;;;;;3.23;71.50;92824.78;5007130;28;20037;-85
2021/04/07 08:05:23;;;;;;;5.65;5.13;;;;;;;3.27;70.97;92844.09;5007928;28;20037;-85
2021/04/07 08:07:52;;;;;;;5.10;4.60;;;;;;;3.23;70.23;92856.88;5005246;28;20033;-85
2021/04/07 08:10:22;;;;;;;4.53;4.07;;;;;;;3.44;71.41;92879.28;5011257;28;20406;-84
2021/04/07 08:12:48;;;;;;;6.88;5.72;;;;;;;3.31;72.25;92863.41;5006405;28;20041;-85
2021/04/07 08:15:15;;;;;;;6.13;4.97;;;;;;;3.40;71.84;92841.69;5008829;28;20045;-85
2021/04/07 08:17:40;;;;;;;6.03;4.85;;;;;;;3.40;71.76;92805.13;5003354;28;20052;-84
2021/04/07 08:20:09;;;;;;;6.40;5.15;;;;;;;3.98;71.14;92872.50;5010013;28;20050;-84
2021/04/07 08:22:36;;;;;;;6.13;4.88;;;;;;;3.93;69.55;92840.13;5005701;28;20029;-84
2021/04/07 08:25:06;;;;;;;5.38;4.85;;;;;;;4.24;68.21;92866.88;5006986;28;20083;-83
2021/04/07 08:27:39;;;;;;;6.38;5.05;;;;;;;4.44;67.94;92879.03;5007544;28;20037;-83
2021/04/07 08:30:08;;;;;;;5.00;4.57;;;;;;;4.52;67.54;92898.59;5005351;28;20502;-84
2021/04/07 08:32:34;;;;;;;7.55;6.68;;;;;;;3.92;67.06;92864.69;5012159;28;20164;-83
2021/04/07 08:35:00;;;;;;;7.22;5.25;;;;;;;4.06;69.12;92885.00;5008635;28;20143;-82
2021/04/07 08:37:32;;;;;;;6.78;6.10;;;;;;;4.32;68.69;92920.41;5016250;28;20084;-83
2021/04/07 08:40:15;;;;;;;9.55;6.00;;;;;;;4.03;67.06;92857.59;5000879;28;20165;-82
2021/04/07 08:42:42;;;;;;;5.50;4.72;;;;;;;4.21;65.94;92866.63;5006861;28;20506;-83
2021/04/07 19:28:14;;;;;;;7.53;6.38;;;;;;;3.23;54.57;93550.63;5021410;28;20396;-83
2021/04/07 19:30:39;;;;;;;8.13;6.75;;;;;;;3.37;54.47;93560.41;4980842;28;20050;-84
2021/04/07 19:33:05;;;;;;;8.45;7.53;;;;;;;3.33;54.12;93558.53;4955855;28;20046;-84
2021/04/07 19:35:30;;;;;;;8.38;6.88;;;;;;;3.15;53.99;93527.59;4963043;28;20069;-83
2021/04/07 19:38:00;;;;;;;8.15;6.57;;;;;;;3.36;53.69;93550.22;4953759;28;20518;-87
2021/04/07 19:40:26;;;;;;;8.48;6.35;;;;;;;3.26;54.03;93544.91;4964143;28;20026;-84
2021/04/07 19:42:51;;;;;;;8.95;7.40;;;;;;;3.28;53.61;93532.38;4947395;28;20141;-87
2021/04/07 19:45:20;;;;;;;7.85;6.50;;;;;;;3.25;53.22;93525.06;4960768;28;20140;-85
2021/04/07 19:47:48;;;;;;;8.43;7.07;;;;;;;3.48;52.86;93554.22;4932685;28;20194;-86
2021/04/07 19:50:32;;;;;;;7.20;6.20;;;;;;;3.40;52.67;93533.00;4948693;28;20470;-85
2021/04/07 19:53:00;;;;;;;7.30;6.57;;;;;;;3.64;52.85;93578.66;4946529;28;20031;-88
2021/04/07 19:55:29;;;;;;;7.63;6.85;;;;;;;3.54;54.39;93552.44;4967725;28;20126;-89
2021/04/07 19:57:58;;;;;;;9.30;7.85;;;;;;;3.34;55.48;93532.19;4920150;28;20046;-86
2021/04/07 20:00:24;;;;;;;7.13;6.15;;;;;;;3.48;55.36;93554.22;4948627;28;20047;-85
2021/04/07 20:02:49;;;;;;;8.57;6.82;;;;;;;3.23;55.64;93520.06;4950004;28;20580;-84
2021/04/07 20:05:16;;;;;;;10.32;6.57;;;;;;;3.21;55.45;93513.53;4949633;28;20097;-85
2021/04/07 20:07:41;;;;;;;7.68;6.90;;;;;;;3.27;55.34;93525.63;4968302;28;20106;-81
2021/04/07 20:10:22;;;;;;;;;;;;;;;;;;;;;
2021/04/07 20:12:56;;;;;;;8.48;6.55;;;;;;;3.30;54.05;93512.03;4903331;28;20036;-83
2021/04/07 20:15:22;;;;;;;8.13;6.35;;;;;;;3.61;54.22;93567.91;4949399;28;20039;-86
2021/04/07 20:17:47;;;;;;;7.20;6.22;;;;;;;3.32;53.30;93515.19;4947272;28;20050;-86
2021/04/07 20:20:16;;;;;;;7.90;6.75;;;;;;;3.71;53.44;93578.44;4958035;28;20039;-86
2021/04/07 20:22:45;;;;;;;8.18;5.97;;;;;;;3.59;52.95;93551.69;4919775;28;20141;-84
2021/04/07 20:25:11;;;;;;;7.43;5.28;;;;;;;3.79;53.01;93576.13;4946410;28;20078;-86
2021/04/07 20:27:40;;;;;;;7.90;6.47;;;;;;;3.63;52.32;93550.94;4953175;28;20046;-87
2021/04/07 20:30:08;;;;;;;10.15;6.20;;;;;;;3.84;52.69;93568.31;4955673;28;20098;-85
2021/04/07 20:32:33;;;;;;;11.45;7.70;;;;;;;3.79;51.73;93568.28;4953950;28;20043;-84
2021/04/07 20:34:59;;;;;;;14.38;7.90;;;;;;;3.90;52.24;93580.41;4954310;28;20039;-87
2021/04/07 20:37:25;;;;;;;12.38;9.32;;;;;;;3.90;52.26;93571.75;4952315;28;20105;-87
2021/04/07 20:39:51;;;;;;;10.00;7.47;;;;;;;3.90;52.79;93582.22;4949482;28;20468;-86
2021/04/07 20:44:14;;;;;;;10.25;7.75;;;;;;;3.88;52.28;93600.75;5020600;28;20488;-85
2021/04/07 20:46:39;;;;;;;13.93;10.30;;;;;;;3.77;51.59;93577.41;5026153;28;20041;-88
2021/04/07 20:49:10;;;;;;;8.98;7.38;;;;;;;3.48;51.93;93543.00;5028131;28;20070;-86
2021/04/07 20:51:36;;;;;;;9.93;6.85;;;;;;;3.46;52.43;93558.13;5027974;28;20033;-88
2021/04/07 20:54:01;;;;;;;10.82;7.10;;;;;;;3.66;52.60;93587.03;5024937;28;20052;-87
2021/04/07 20:56:27;;;;;;;10.00;8.02;;;;;;;3.64;52.24;93578.66;5027140;28;20463;-87
2021/04/07 20:58:53;;;;;;;10.23;8.13;;;;;;;3.87;51.84;93604.41;5026498;28;20072;-87
2021/04/07 21:01:18;;;;;;;9.52;7.97;;;;;;;3.81;52.80;93605.41;5028036;28;20030;-87
2021/04/07 21:03:44;;;;;;;12.32;8.90;;;;;;;3.88;52.84;93626.13;5027337;28;20032;-85
2021/04/07 21:06:12;;;;;;;11.13;9.10;;;;;;;3.87;51.52;93625.31;5027068;28;21150;-88
2021/04/07 21:08:40;;;;;;;12.07;9.57;;;;;;;3.79;52.54;93615.34;5017844;28;20404;-86
2021/04/07 21:11:06;;;;;;;10.43;9.10;;;;;;;3.86;52.46;93639.41;5023260;28;20046;-88
2021/04/07 21:13:31;;;;;;;17.17;8.25;;;;;;;3.86;51.73;93634.19;5024881;28;20041;-81
2021/04/07 21:15:57;;;;;;;10.93;7.82;;;;;;;3.53;52.36;93604.94;5029647;28;20554;-87
2021/04/07 21:18:22;;;;;;;11.63;8.95;;;;;;;3.60;52.76;93619.38;5029368;28;20041;-85
2021/04/07 21:20:50;;;;;;;11.07;7.80;;;;;;;3.60;53.02;93619.38;5015595;28;20045;-86
2021/04/07 21:23:18;;;;;;;8.05;7.22;;;;;;;3.79;52.19;93651.94;5027133;28;20057;-86
2021/04/07 21:25:47;;;;;;;10.13;7.70;;;;;;;3.73;52.59;93645.09;5024407;28;20513;-88
2021/04/07 21:28:18;;;;;;;10.38;7.97;;;;;;;3.70;52.29;93634.34;5010072;28;20501;-86
2021/04/07 21:30:47;;;;;;;11.23;7.78;;;;;;;3.68;52.50;93628.56;5033947;28;20041;-86
2021/04/07 21:33:15;;;;;;;10.82;8.27;;;;;;;3.81;52.17;93652.47;5024191;28;20310;-86
2021/04/07 21:35:40;;;;;;;10.63;7.93;;;;;;;3.54;52.12;93620.38;4990888;28;20549;-87
2021/04/07 21:38:06;;;;;;;12.50;7.47;;;;;;;3.73;52.54;93652.13;5022006;28;20535;-86
2021/04/07 21:40:31;;;;;;;10.52;8.57;;;;;;;3.44;52.65;93609.84;4988817;28;21192;-86
2021/04/07 21:42:56;;;;;;;12.43;7.80;;;;;;;3.66;52.90;93644.53;5015888;28;20548;-86
2021/04/07 21:45:24;;;;;;;11.77;8.20;;;;;;;3.47;52.83;93623.19;5025755;28;20661;-84
2021/04/07 21:47:53;;;;;;;9.75;7.68;;;;;;;3.30;53.12;93608.66;5005786;28;20152;-85
2021/04/07 21:50:21;;;;;;;11.02;8.73;;;;;;;3.39;53.53;93617.63;5026200;28;20048;-88
2021/04/07 21:52:50;;;;;;;11.25;8.18;;;;;;;3.69;53.64;93661.50;5024085;28;20029;-84
2021/04/07 21:55:15;;;;;;;10.88;8.50;;;;;;;3.62;53.80;93672.16;5014748;28;20017;-86
2021/04/07 21:57:41;;;;;;;14.25;9.95;;;;;;;3.53;53.52;93665.81;5014247;28;20497;-86
2021/04/07 22:00:29;;;;;;;10.00;7.60;;;;;;;3.70;53.32;93682.19;5012026;28;20049;-85
2021/04/07 22:02:58;;;;;;;14.93;8.05;;;;;;;3.46;53.15;93675.69;5008539;28;20045;-87
2021/04/07 22:05:27;;;;;;;9.60;8.23;;;;;;;3.51;53.20;93694.03;5001618;28;20544;-88
2021/04/07 22:08:03;;;;;;;11.13;8.27;;;;;;;3.35;53.30;93663.56;5025753;28;20037;-85
2021/04/07 22:10:34;;;;;;;11.65;9.82;;;;;;;3.28;53.81;93649.91;4994938;28;20063;-85
2021/04/07 22:13:00;;;;;;;15.10;9.43;;;;;;;3.40;53.81;93672.25;5022670;28;20060;-86
2021/04/07 22:15:45;;;;;;;9.98;8.90;;;;;;;3.28;53.57;93671.59;5008284;28;20515;-90
2021/04/07 22:18:31;;;;;;;11.32;8.93;;;;;;;3.05;54.18;93643.16;5013833;28;20037;-85
2021/04/07 22:21:03;;;;;;;13.30;10.65;;;;;;;3.45;53.79;93710.69;5009263;28;20045;-85
2021/04/07 22:23:49;;;;;;;13.40;10.10;;;;;;;3.40;54.73;93708.03;5009083;28;20042;-87
2021/04/07 22:26:17;;;;;;;12.50;9.50;;;;;;;3.54;54.66;93716.25;4986318;28;20065;-88
2021/04/07 22:28:44;;;;;;;12.05;9.23;;;;;;;3.52;54.72;93708.66;5007772;28;20056;-85
2021/04/07 22:31:11;;;;;;;10.35;8.63;;;;;;;3.52;55.05;93700.81;5012151;28;20052;-83
2021/04/07 22:33:54;;;;;;;12.40;9.48;;;;;;;3.58;54.35;93710.28;5014395;28;20021;-85
2021/04/07 22:36:25;;;;;;;12.43;10.00;;;;;;;3.52;54.47;93711.25;5004152;28;20037;-82
2021/04/07 22:38:52;;;;;;;12.75;9.55;;;;;;;3.52;54.77;93713.88;5013352;28;20052;-85